Schaumburg, Illinois
Current Conditions -  °F | °C
As of 1:51 PM on Monday 22 Dec 2014 (Local Time) from KORD Reporting Station
Light Rain Light Rain  
Wind Chill: 28°   Ceiling: 900
Heat Index: 36°   Visibility: 3mi
Dew Point: 33°   Wind: 10mph
Humidity: 89%   Direction: 100°E
Pressure: 29.73"   Gusts: NA
Location:  42.03°N, 88.07°W
Report Text: KORD 221951Z 10009KT 3SM -RA BR OVC009 02/01 A2973 RMK AO2 SLP073 P0001 T00220006
Loading
Personal Weather Stations






























Interactive Weather Map New forecast layout! Learn more

10-Day Weather Forecast

Advertisements
Track Severe Weather on mobile